createdAt,value
2023-01-05T00:00:56.718Z,100193.00
2023-01-05T00:03:24.431Z,100205.00
2023-01-05T00:05:53.433Z,100213.00
2023-01-05T00:08:21.099Z,100205.00
2023-01-05T00:11:06.203Z,100201.00
2023-01-05T00:13:51.474Z,100205.00
2023-01-05T00:16:36.825Z,100203.00
2023-01-05T00:19:22.220Z,100206.00
2023-01-05T00:22:08.994Z,100203.00
2023-01-05T00:24:36.616Z,100221.00
2023-01-05T00:27:04.281Z,100211.00
2023-01-05T00:29:31.929Z,100206.00
2023-01-05T00:31:59.634Z,100210.00
2023-01-05T00:34:27.315Z,100203.00
2023-01-05T00:36:56.312Z,100203.00
2023-01-05T00:39:24.032Z,100206.00
2023-01-05T00:41:51.653Z,100197.00
2023-01-05T00:44:19.353Z,100209.00
2023-01-05T00:46:47.067Z,100211.00
2023-01-05T00:49:14.726Z,100216.00
2023-01-05T00:51:42.451Z,100226.00
2023-01-05T00:54:11.449Z,100226.00
2023-01-05T00:56:39.155Z,100213.00
2023-01-05T00:59:06.871Z,100214.00
2023-01-05T01:01:34.665Z,100217.00
2023-01-05T01:04:02.324Z,100235.00
2023-01-05T01:06:29.974Z,100244.00
2023-01-05T01:08:59.027Z,100237.00
2023-01-05T01:11:28.074Z,100227.00
2023-01-05T01:13:55.749Z,100220.00
2023-01-05T01:16:23.545Z,100228.00
2023-01-05T01:18:51.542Z,100241.00
2023-01-05T01:21:19.394Z,100236.00
2023-01-05T01:23:47.019Z,100237.00
2023-01-05T01:26:15.193Z,100243.00
2023-01-05T01:28:44.202Z,100246.00
2023-01-05T01:31:11.903Z,100246.00
2023-01-05T01:33:40.894Z,100251.00
2023-01-05T01:36:09.716Z,100256.00
2023-01-05T01:38:37.884Z,100255.00
2023-01-05T01:41:05.752Z,100256.00
2023-01-05T01:43:46.843Z,100251.00
2023-01-05T01:46:16.263Z,100255.00
2023-01-05T01:48:48.044Z,100270.00
2023-01-05T01:51:21.291Z,100260.00
2023-01-05T01:53:52.562Z,100252.00
2023-01-05T01:56:23.555Z,100252.00
2023-01-05T01:58:53.121Z,100262.00
2023-01-05T02:01:21.112Z,100256.00
2023-01-05T02:03:49.010Z,100263.00
2023-01-05T02:06:16.865Z,100262.00
2023-01-05T02:08:45.082Z,100269.00
2023-01-05T02:11:32.049Z,100270.00
2023-01-05T02:14:23.205Z,100252.00
2023-01-05T02:17:05.710Z,100252.00
2023-01-05T02:20:05.287Z,100274.00
2023-01-05T02:23:15.856Z,100268.00
2023-01-05T02:26:24.269Z,100265.00
2023-01-05T02:29:39.966Z,100261.00
2023-01-05T02:32:17.371Z,100280.00
2023-01-05T02:34:50.223Z,100276.00
2023-01-05T02:37:24.066Z,100285.00
2023-01-05T02:39:57.135Z,100271.00
2023-01-05T02:42:25.863Z,100291.00
2023-01-05T02:44:53.795Z,100293.00
2023-01-05T02:47:38.691Z,100282.00
2023-01-05T02:50:12.142Z,100271.00
2023-01-05T02:52:43.847Z,100282.00
2023-01-05T02:55:15.950Z,100264.00
2023-01-05T02:57:50.521Z,100272.00
2023-01-05T03:00:20.996Z,100274.00
2023-01-05T03:02:53.493Z,100288.00
2023-01-05T03:05:26.717Z,100288.00
2023-01-05T03:08:07.542Z,100288.00
2023-01-05T03:10:58.413Z,100281.00
2023-01-05T03:13:43.952Z,100289.00
2023-01-05T03:16:15.962Z,100308.00
2023-01-05T03:19:03.476Z,100293.00
2023-01-05T03:21:45.485Z,100294.00
2023-01-05T03:24:31.152Z,100294.00
2023-01-05T03:27:16.805Z,100299.00
2023-01-05T03:30:02.036Z,100291.00
2023-01-05T03:32:48.763Z,100292.00
2023-01-05T03:35:34.631Z,100289.00
2023-01-05T03:38:10.529Z,100294.00
2023-01-05T03:40:42.879Z,100291.00
2023-01-05T03:43:11.006Z,100302.00
2023-01-05T03:45:43.059Z,100303.00
2023-01-05T03:48:10.728Z,100304.00
2023-01-05T03:50:39.762Z,100316.00
2023-01-05T03:53:08.003Z,100302.00
2023-01-05T03:55:35.694Z,100305.00
2023-01-05T03:58:03.489Z,100318.00
2023-01-05T04:00:31.148Z,100321.00
2023-01-05T04:02:58.875Z,100325.00
2023-01-05T04:05:26.610Z,100337.00
2023-01-05T04:07:55.663Z,100336.00
2023-01-05T04:10:23.280Z,100333.00
2023-01-05T04:12:50.977Z,100340.00
2023-01-05T04:15:18.833Z,100349.00
2023-01-05T04:17:46.507Z,100342.00
2023-01-05T04:20:14.169Z,100350.00
2023-01-05T04:22:41.825Z,100339.00
2023-01-05T04:25:11.079Z,100345.00
2023-01-05T04:27:38.691Z,100352.00
2023-01-05T04:30:07.610Z,100344.00
2023-01-05T04:32:35.306Z,100357.00
2023-01-05T04:35:10.673Z,100342.00
2023-01-05T04:37:39.236Z,100363.00
2023-01-05T04:40:08.105Z,100374.00
2023-01-05T04:42:37.121Z,100364.00
2023-01-05T04:45:05.376Z,100360.00
2023-01-05T04:47:33.025Z,100357.00
2023-01-05T04:50:00.673Z,100380.00
2023-01-05T04:52:28.415Z,100367.00
2023-01-05T04:54:56.151Z,100374.00
2023-01-05T04:57:23.814Z,100379.00
2023-01-05T04:59:53.102Z,100383.00
2023-01-05T05:02:20.976Z,100380.00
2023-01-05T05:04:48.831Z,100365.00
2023-01-05T05:07:16.590Z,100376.00
2023-01-05T05:09:44.229Z,100387.00
2023-01-05T05:12:11.919Z,100384.00
2023-01-05T05:14:39.554Z,100372.00
2023-01-05T05:17:08.603Z,100381.00
2023-01-05T05:19:36.271Z,100395.00
2023-01-05T05:22:03.933Z,100396.00
2023-01-05T05:24:31.665Z,100400.00
2023-01-05T05:26:59.361Z,100403.00
2023-01-05T05:29:27.052Z,100400.00
2023-01-05T05:31:55.037Z,100401.00
2023-01-05T05:34:24.148Z,100393.00
2023-01-05T05:36:51.903Z,100406.00
2023-01-05T05:39:20.523Z,100413.00
2023-01-05T05:41:48.169Z,100415.00
2023-01-05T05:44:15.872Z,100401.00
2023-01-05T05:46:43.719Z,100406.00
2023-01-05T05:49:11.536Z,100403.00
2023-01-05T05:51:40.558Z,100408.00
2023-01-05T05:54:08.242Z,100427.00
2023-01-05T05:56:35.874Z,100425.00
2023-01-05T05:59:03.551Z,100413.00
2023-01-05T06:01:31.334Z,100422.00
2023-01-05T06:03:59.454Z,100434.00
2023-01-05T06:06:27.315Z,100424.00
2023-01-05T06:08:56.278Z,100446.00
2023-01-05T06:11:23.940Z,100436.00
2023-01-05T06:13:52.035Z,100432.00
2023-01-05T06:16:19.747Z,100446.00
2023-01-05T06:18:47.380Z,100438.00
2023-01-05T06:21:15.023Z,100447.00
2023-01-05T06:23:42.707Z,100445.00
2023-01-05T06:26:11.717Z,100456.00
2023-01-05T06:28:39.383Z,100472.00
2023-01-05T06:31:07.222Z,100467.00
2023-01-05T06:33:35.038Z,100470.00
2023-01-05T06:36:02.673Z,100454.00
2023-01-05T06:38:30.377Z,100482.00
2023-01-05T06:40:59.342Z,100480.00
2023-01-05T06:43:28.412Z,100485.00
2023-01-05T06:45:56.122Z,100485.00
2023-01-05T06:48:23.975Z,100488.00
2023-01-05T06:50:51.615Z,100498.00
2023-01-05T06:53:19.365Z,100487.00
2023-01-05T06:55:47.278Z,100501.00
2023-01-05T06:58:15.001Z,100511.00
2023-01-05T07:00:44.224Z,100502.00
2023-01-05T07:03:14.548Z,100502.00
2023-01-05T07:05:43.198Z,100512.00
2023-01-05T07:08:11.044Z,100503.00
2023-01-05T07:10:38.694Z,100510.00
2023-01-05T07:13:06.355Z,100518.00
2023-01-05T07:15:34.117Z,100529.00
2023-01-05T07:18:03.137Z,100518.00
2023-01-05T07:20:30.810Z,100535.00
2023-01-05T07:22:59.123Z,100542.00
2023-01-05T07:25:31.252Z,100539.00
2023-01-05T07:27:59.174Z,100548.00
2023-01-05T07:30:27.248Z,100549.00
2023-01-05T07:32:59.048Z,100545.00
2023-01-05T07:35:28.537Z,100548.00
2023-01-05T07:37:57.088Z,100559.00
2023-01-05T07:40:24.954Z,100557.00
2023-01-05T07:42:53.413Z,100571.00
2023-01-05T07:45:22.034Z,100561.00
2023-01-05T07:47:49.838Z,100571.00
2023-01-05T07:50:17.512Z,100573.00
2023-01-05T07:52:46.543Z,100562.00
2023-01-05T07:55:14.209Z,100577.00
2023-01-05T07:57:41.870Z,100572.00
2023-01-05T08:00:14.115Z,100581.00
2023-01-05T08:02:42.192Z,100577.00
2023-01-05T08:05:10.635Z,100583.00
2023-01-05T08:07:38.603Z,100581.00
2023-01-05T08:10:25.951Z,100594.00
2023-01-05T08:13:11.051Z,100599.00
2023-01-05T08:15:38.831Z,100615.00
2023-01-05T08:18:06.645Z,100598.00
2023-01-05T08:20:34.333Z,100604.00
2023-01-05T08:23:01.952Z,100618.00
2023-01-05T08:25:31.142Z,100614.00
2023-01-05T08:27:59.977Z,100628.00
2023-01-05T08:30:27.793Z,100636.00
2023-01-05T08:32:55.429Z,100625.00
2023-01-05T08:35:23.150Z,100630.00
2023-01-05T08:37:50.774Z,100623.00
2023-01-05T08:40:18.476Z,100629.00
2023-01-05T08:42:48.237Z,100631.00
2023-01-05T08:45:16.413Z,100633.00
2023-01-05T08:47:44.745Z,100649.00
2023-01-05T08:50:12.907Z,100651.00
2023-01-05T08:52:40.938Z,100656.00
2023-01-05T08:55:09.210Z,100655.00
2023-01-05T08:57:37.168Z,100662.00
2023-01-05T09:00:07.879Z,100665.00
2023-01-05T09:02:35.957Z,100689.00
2023-01-05T09:05:04.052Z,100677.00
2023-01-05T09:07:31.708Z,100677.00
2023-01-05T09:09:59.413Z,100692.00
2023-01-05T09:12:32.797Z,100687.00
2023-01-05T09:15:00.968Z,100687.00
2023-01-05T09:17:30.166Z,100696.00
2023-01-05T09:19:57.841Z,100700.00
2023-01-05T09:22:25.604Z,100707.00
2023-01-05T09:24:53.360Z,100713.00
2023-01-05T09:27:21.153Z,100716.00
2023-01-05T09:29:48.798Z,100717.00
2023-01-05T09:32:16.706Z,100720.00
2023-01-05T09:34:45.752Z,100733.00
2023-01-05T09:37:13.444Z,100742.00
2023-01-05T09:39:41.181Z,100748.00
2023-01-05T09:42:13.633Z,100751.00
2023-01-05T09:44:44.769Z,100755.00
2023-01-05T09:47:16.621Z,100750.00
2023-01-05T09:49:47.229Z,100767.00
2023-01-05T09:52:15.150Z,100764.00
2023-01-05T09:54:42.954Z,100777.00
2023-01-05T09:57:18.157Z,100790.00
2023-01-05T09:59:48.166Z,100784.00
2023-01-05T10:02:21.416Z,100774.00
2023-01-05T10:04:51.862Z,100783.00
2023-01-05T10:07:27.779Z,100786.00
2023-01-05T10:09:59.717Z,100786.00
2023-01-05T10:12:50.747Z,100793.00
2023-01-05T10:15:21.555Z,100805.00
2023-01-05T10:17:49.802Z,100797.00
2023-01-05T10:20:26.618Z,100797.00
2023-01-05T10:23:04.062Z,100808.00
2023-01-05T10:25:39.869Z,100797.00
2023-01-05T10:28:28.165Z,100807.00
2023-01-05T10:31:00.141Z,100810.00
2023-01-05T10:33:52.520Z,100825.00
2023-01-05T10:37:11.606Z,100814.00
2023-01-05T10:40:00.228Z,100818.00
2023-01-05T10:42:40.844Z,100836.00
2023-01-05T10:45:10.637Z,100848.00
2023-01-05T10:47:40.924Z,100847.00
2023-01-05T10:50:27.154Z,100847.00
2023-01-05T10:52:56.282Z,100850.00
2023-01-05T10:55:24.934Z,100845.00
2023-01-05T10:57:52.621Z,100846.00
2023-01-05T11:00:22.278Z,100854.00
2023-01-05T11:02:52.083Z,100860.00
2023-01-05T11:05:31.864Z,100856.00
2023-01-05T11:08:04.241Z,100860.00
2023-01-05T11:10:33.909Z,100871.00
2023-01-05T11:13:04.482Z,100879.00
2023-01-05T11:15:34.722Z,100874.00
2023-01-05T11:18:03.608Z,100883.00
2023-01-05T11:20:31.293Z,100877.00
2023-01-05T11:22:59.022Z,100866.00
2023-01-05T11:25:33.002Z,100881.00
2023-01-05T11:28:22.191Z,100886.00
2023-01-05T11:31:01.265Z,100888.00
2023-01-05T11:33:31.463Z,100898.00
2023-01-05T11:35:59.810Z,100888.00
2023-01-05T11:38:29.477Z,100887.00
2023-01-05T11:41:00.115Z,100886.00
2023-01-05T11:43:31.299Z,100898.00
2023-01-05T11:46:03.359Z,100879.00
2023-01-05T11:48:34.631Z,100887.00
2023-01-05T11:51:02.742Z,100898.00
2023-01-05T11:53:39.531Z,100896.00
2023-01-05T11:56:21.599Z,100891.00
2023-01-05T11:58:50.370Z,100897.00
2023-01-05T12:01:44.652Z,100902.00
2023-01-05T12:04:27.289Z,100894.00
2023-01-05T12:07:04.743Z,100903.00
2023-01-05T12:09:35.399Z,100903.00
2023-01-05T12:12:39.220Z,100907.00
2023-01-05T12:15:31.386Z,100902.00
2023-01-05T12:18:08.077Z,100897.00
2023-01-05T12:20:50.885Z,100902.00
2023-01-05T12:23:36.726Z,100915.00
2023-01-05T12:26:16.621Z,100906.00
2023-01-05T12:35:41.162Z,100919.00
2023-01-05T12:38:23.861Z,100917.00
2023-01-05T12:41:16.932Z,100920.00
2023-01-05T12:43:54.556Z,100925.00
2023-01-05T12:46:37.419Z,100936.00
2023-01-05T12:49:11.943Z,100936.00
2023-01-05T12:51:44.577Z,100943.00
2023-01-05T12:54:22.326Z,100944.00
2023-01-05T12:56:55.376Z,100949.00
2023-01-05T12:59:30.585Z,100941.00
2023-01-05T13:02:04.776Z,100940.00
2023-01-05T13:04:46.730Z,100953.00
2023-01-05T13:07:21.844Z,100948.00
2023-01-05T13:10:02.288Z,100951.00
2023-01-05T13:12:32.548Z,100953.00
2023-01-05T13:15:14.519Z,100960.00
2023-01-05T13:17:46.767Z,100961.00
2023-01-05T13:20:28.137Z,100959.00
2023-01-05T13:23:01.391Z,100956.00
2023-01-05T13:25:32.538Z,100955.00
2023-01-05T13:28:00.233Z,100962.00
2023-01-05T13:30:32.851Z,100967.00
2023-01-05T13:33:25.276Z,100972.00
2023-01-05T13:36:04.169Z,100975.00
2023-01-05T13:39:06.539Z,100976.00
2023-01-05T13:41:51.171Z,100986.00
2023-01-05T13:44:35.839Z,100988.00
2023-01-05T13:47:27.259Z,100991.00
2023-01-05T13:50:30.192Z,100997.00
2023-01-05T13:53:12.402Z,100992.00
2023-01-05T13:55:46.885Z,100999.00
2023-01-05T14:01:11.249Z,101006.00
2023-01-05T14:03:42.760Z,101005.00
2023-01-05T14:06:19.398Z,101011.00
2023-01-05T14:08:53.470Z,101008.00
2023-01-05T14:11:22.874Z,101014.00
2023-01-05T14:13:53.970Z,101011.00
2023-01-05T14:16:48.196Z,101026.00
2023-01-05T14:19:22.507Z,101028.00
2023-01-05T14:22:01.318Z,101030.00
2023-01-05T14:24:32.758Z,101023.00
2023-01-05T14:27:03.869Z,101038.00
2023-01-05T14:30:11.481Z,101034.00
2023-01-05T14:32:41.287Z,101043.00
2023-01-05T14:35:31.581Z,101031.00
2023-01-05T14:38:01.888Z,101050.00
2023-01-05T14:40:34.250Z,101058.00
2023-01-05T14:43:04.486Z,101066.00
2023-01-05T14:45:34.787Z,101067.00
2023-01-05T14:48:04.845Z,101071.00
2023-01-05T14:50:37.080Z,101082.00
2023-01-05T14:53:12.084Z,101081.00
2023-01-05T14:55:42.234Z,101089.00
2023-01-05T14:58:16.132Z,101090.00
2023-01-05T15:00:54.859Z,101096.00
2023-01-05T15:03:29.737Z,101085.00
2023-01-05T15:06:04.724Z,101095.00
2023-01-05T15:09:10.773Z,101093.00
2023-01-05T15:12:01.390Z,101099.00
2023-01-05T15:15:01.582Z,101118.00
2023-01-05T15:18:13.783Z,101109.00
2023-01-05T15:21:30.175Z,101121.00
2023-01-05T15:24:31.190Z,101120.00
2023-01-05T15:27:13.984Z,101119.00
2023-01-05T15:30:01.511Z,101134.00
2023-01-05T15:32:33.680Z,101121.00
2023-01-05T15:35:06.148Z,101126.00
2023-01-05T15:37:38.033Z,101124.00
2023-01-05T15:40:09.136Z,101129.00
2023-01-05T15:42:40.463Z,101139.00
2023-01-05T15:45:19.759Z,101129.00
2023-01-05T15:47:48.720Z,101130.00
2023-01-05T15:50:20.417Z,101134.00
2023-01-05T15:52:55.751Z,101146.00
2023-01-05T15:55:24.444Z,101140.00
2023-01-05T15:57:54.321Z,101139.00
2023-01-05T16:00:25.411Z,101138.00
2023-01-05T16:02:53.356Z,101131.00
2023-01-05T16:05:23.223Z,101145.00
2023-01-05T16:07:57.613Z,101143.00
2023-01-05T16:10:30.621Z,101149.00
2023-01-05T16:13:08.753Z,101150.00
2023-01-05T16:15:39.520Z,101141.00
2023-01-05T16:18:14.443Z,101143.00
2023-01-05T16:20:46.668Z,101150.00
2023-01-05T16:23:18.951Z,101146.00
2023-01-05T16:25:51.191Z,101148.00
2023-01-05T16:28:20.768Z,101163.00
2023-01-05T16:30:49.893Z,101164.00
2023-01-05T16:33:34.459Z,101178.00
2023-01-05T16:36:21.880Z,101168.00
2023-01-05T16:38:50.946Z,101177.00
2023-01-05T16:41:23.473Z,101166.00
2023-01-05T16:43:54.438Z,101155.00
2023-01-05T16:46:37.315Z,101177.00
2023-01-05T16:49:24.630Z,101164.00
2023-01-05T16:51:53.151Z,101166.00
2023-01-05T16:54:24.623Z,101166.00
2023-01-05T16:56:58.081Z,101167.00
2023-01-05T16:59:46.409Z,101167.00
2023-01-05T17:02:54.183Z,101167.00
2023-01-05T17:05:24.615Z,101178.00
2023-01-05T17:07:59.300Z,101186.00
2023-01-05T17:10:28.988Z,101195.00
2023-01-05T17:13:01.719Z,101186.00
2023-01-05T17:15:32.742Z,101189.00
2023-01-05T17:18:00.619Z,101199.00
2023-01-05T17:20:33.213Z,101198.00
2023-01-05T17:23:01.013Z,101192.00
2023-01-05T17:25:33.715Z,101205.00
2023-01-05T17:28:01.466Z,101201.00
2023-01-05T17:30:29.206Z,101201.00
2023-01-05T17:32:56.872Z,101196.00
2023-01-05T17:35:24.688Z,101197.00
2023-01-05T17:37:52.379Z,101194.00
2023-01-05T17:40:22.363Z,101210.00
2023-01-05T17:42:51.475Z,101199.00
2023-01-05T17:45:21.558Z,101194.00
2023-01-05T17:47:50.087Z,101198.00
2023-01-05T17:50:19.516Z,101194.00
2023-01-05T17:52:47.391Z,101195.00
2023-01-05T17:55:15.522Z,101193.00
2023-01-05T17:57:43.214Z,101184.00
2023-01-05T18:00:15.623Z,101192.00
2023-01-05T18:02:43.591Z,101176.00
2023-01-05T18:05:12.981Z,101187.00
2023-01-05T18:07:42.210Z,101181.00
2023-01-05T18:10:12.486Z,101190.00
2023-01-05T18:15:11.211Z,101180.00
2023-01-05T18:17:40.411Z,101184.00
2023-01-05T18:20:09.423Z,101188.00
2023-01-05T18:22:39.383Z,101187.00
2023-01-05T18:25:07.885Z,101198.00
2023-01-05T18:27:35.816Z,101200.00
2023-01-05T18:30:04.652Z,101192.00
2023-01-05T18:32:32.414Z,101184.00
2023-01-05T18:35:04.410Z,101196.00
2023-01-05T18:37:35.427Z,101190.00
2023-01-05T18:40:03.526Z,101187.00
2023-01-05T18:42:31.187Z,101189.00
2023-01-05T18:45:01.537Z,101190.00
2023-01-05T18:47:37.461Z,101194.00
2023-01-05T18:50:08.137Z,101186.00
2023-01-05T18:52:35.950Z,101188.00
2023-01-05T18:55:03.824Z,101189.00
2023-01-05T18:57:31.810Z,101185.00
2023-01-05T19:00:00.161Z,101191.00
2023-01-05T19:02:28.470Z,101186.00
2023-01-05T19:04:56.737Z,101188.00
2023-01-05T19:07:25.808Z,101183.00
2023-01-05T19:09:54.244Z,101185.00
2023-01-05T19:12:21.949Z,101172.00
2023-01-05T19:14:49.729Z,101178.00
2023-01-05T19:17:17.397Z,101176.00
2023-01-05T19:19:45.035Z,101186.00
2023-01-05T19:22:12.695Z,101175.00
2023-01-05T19:24:41.743Z,101183.00
2023-01-05T19:27:09.387Z,101188.00
2023-01-05T19:29:37.038Z,101179.00
2023-01-05T19:32:05.051Z,101185.00
2023-01-05T19:34:32.674Z,101180.00
2023-01-05T19:37:00.361Z,101169.00
2023-01-05T19:39:28.091Z,101179.00
2023-01-05T19:41:57.095Z,101165.00
2023-01-05T19:44:24.768Z,101169.00
2023-01-05T19:46:53.969Z,101172.00
2023-01-05T19:49:23.325Z,101164.00
2023-01-05T19:51:52.093Z,101178.00
2023-01-05T19:54:20.603Z,101168.00
2023-01-05T19:56:48.333Z,101164.00
2023-01-05T19:59:21.333Z,101172.00
2023-01-05T20:01:49.883Z,101162.00
2023-01-05T20:04:18.006Z,101164.00
2023-01-05T20:06:46.592Z,101166.00
2023-01-05T20:09:17.107Z,101161.00
2023-01-05T20:11:47.654Z,101169.00
2023-01-05T20:14:19.242Z,101164.00
2023-01-05T20:16:50.678Z,101166.00
2023-01-05T20:19:19.512Z,101172.00
2023-01-05T20:21:48.022Z,101164.00
2023-01-05T20:24:18.854Z,101172.00
2023-01-05T20:26:47.467Z,101161.00
2023-01-05T20:29:18.158Z,101155.00
2023-01-05T20:31:48.259Z,101161.00
2023-01-05T20:34:20.311Z,101160.00
2023-01-05T20:36:49.525Z,101159.00
2023-01-05T20:39:20.213Z,101167.00
2023-01-05T20:41:50.106Z,101156.00
2023-01-05T20:44:23.206Z,101152.00
2023-01-05T20:46:54.068Z,101143.00
2023-01-05T20:49:22.791Z,101145.00
2023-01-05T20:51:50.890Z,101151.00
2023-01-05T20:54:18.643Z,101147.00
2023-01-05T20:56:46.844Z,101148.00
2023-01-05T20:59:17.681Z,101157.00
2023-01-05T21:01:47.157Z,101157.00
2023-01-05T21:04:15.157Z,101157.00
2023-01-05T21:06:43.580Z,101155.00
2023-01-05T21:09:11.863Z,101163.00
2023-01-05T21:11:40.759Z,101149.00
2023-01-05T21:14:09.835Z,101160.00
2023-01-05T21:16:39.683Z,101160.00
2023-01-05T21:19:10.035Z,101153.00
2023-01-05T21:21:37.718Z,101153.00
2023-01-05T21:24:07.706Z,101166.00
2023-01-05T21:26:35.556Z,101164.00
2023-01-05T21:29:05.631Z,101173.00
2023-01-05T21:31:34.589Z,101156.00
2023-01-05T21:34:02.281Z,101152.00
2023-01-05T21:36:32.921Z,101155.00
2023-01-05T21:39:03.903Z,101167.00
2023-01-05T21:41:50.176Z,101148.00
2023-01-05T21:44:18.651Z,101152.00
2023-01-05T21:46:46.984Z,101153.00
2023-01-05T21:49:15.203Z,101150.00
2023-01-05T21:52:01.821Z,101145.00
2023-01-05T21:54:47.156Z,101158.00
2023-01-05T21:57:15.097Z,101143.00
2023-01-05T21:59:43.599Z,101150.00
2023-01-05T22:02:11.688Z,101144.00
2023-01-05T22:04:39.366Z,101143.00
2023-01-05T22:07:08.500Z,101145.00
2023-01-05T22:09:36.597Z,101138.00
2023-01-05T22:12:07.082Z,101141.00
2023-01-05T22:14:34.764Z,101136.00
2023-01-05T22:17:02.743Z,101144.00
2023-01-05T22:19:30.443Z,101149.00
2023-01-05T22:21:58.104Z,101140.00
2023-01-05T22:24:27.146Z,101133.00
2023-01-05T22:26:55.014Z,101145.00
2023-01-05T22:29:22.711Z,101133.00
2023-01-05T22:31:51.034Z,101131.00
2023-01-05T22:34:18.901Z,101140.00
2023-01-05T22:36:46.752Z,101136.00
2023-01-05T22:39:14.595Z,101136.00
2023-01-05T22:41:43.917Z,101136.00
2023-01-05T22:44:11.571Z,101128.00
2023-01-05T22:46:39.501Z,101127.00
2023-01-05T22:49:07.228Z,101131.00
2023-01-05T22:51:36.840Z,101125.00
2023-01-05T22:54:05.427Z,101125.00
2023-01-05T22:56:34.136Z,101123.00
2023-01-05T22:59:03.934Z,101123.00
2023-01-05T23:01:33.823Z,101128.00
2023-01-05T23:04:03.078Z,101124.00
2023-01-05T23:06:31.325Z,101114.00
2023-01-05T23:08:59.686Z,101117.00
2023-01-05T23:11:29.151Z,101108.00
2023-01-05T23:13:58.037Z,101114.00
2023-01-05T23:16:27.848Z,101111.00
2023-01-05T23:18:56.054Z,101102.00
2023-01-05T23:21:25.757Z,101096.00
2023-01-05T23:23:54.664Z,101103.00
2023-01-05T23:26:22.759Z,101093.00
2023-01-05T23:28:50.496Z,101064.00
2023-01-05T23:31:19.183Z,101081.00
2023-01-05T23:33:49.290Z,101081.00
2023-01-05T23:36:18.836Z,101084.00
2023-01-05T23:38:47.554Z,101081.00
2023-01-05T23:41:16.636Z,101081.00
2023-01-05T23:43:46.036Z,101077.00
2023-01-05T23:46:16.328Z,101069.00
2023-01-05T23:48:44.556Z,101064.00
2023-01-05T23:51:16.242Z,101068.00
2023-01-05T23:53:45.473Z,101064.00
2023-01-05T23:56:15.577Z,101047.00
2023-01-05T23:58:44.245Z,101060.00
